sensor_id;sensor_type;location;lat;lon;timestamp;pressure;altitude;pressure_sealevel;temperature
69597;BMP180;56802;51.184;-115.558;2022-08-19T00:00:49;86676.00;;;
69597;BMP180;56802;51.184;-115.558;2022-08-19T00:03:18;86674.00;;;
69597;BMP180;56802;51.184;-115.558;2022-08-19T00:05:48;86672.00;;;
69597;BMP180;56802;51.184;-115.558;2022-08-19T00:08:17;86672.40;;;
69597;BMP180;56802;51.184;-115.558;2022-08-19T00:10:47;86668.60;;;
69597;BMP180;56802;51.184;-115.558;2022-08-19T00:13:16;86672.00;;;
69597;BMP180;56802;51.184;-115.558;2022-08-19T00:15:46;86677.60;;;
69597;BMP180;56802;51.184;-115.558;2022-08-19T00:18:15;86673.40;;;
69597;BMP180;56802;51.184;-115.558;2022-08-19T00:20:44;86669.00;;;
69597;BMP180;56802;51.184;-115.558;2022-08-19T00:23:14;86668.60;;;
69597;BMP180;56802;51.184;-115.558;2022-08-19T00:25:45;86676.60;;;
69597;BMP180;56802;51.184;-115.558;2022-08-19T00:28:15;86671.80;;;
69597;BMP180;56802;51.184;-115.558;2022-08-19T00:30:44;86675.00;;;
69597;BMP180;56802;51.184;-115.558;2022-08-19T00:33:13;86671.80;;;
69597;BMP180;56802;51.184;-115.558;2022-08-19T00:35:45;86678.20;;;
69597;BMP180;56802;51.184;-115.558;2022-08-19T00:38:22;86684.40;;;
69597;BMP180;56802;51.184;-115.558;2022-08-19T00:41:05;86680.20;;;
69597;BMP180;56802;51.184;-115.558;2022-08-19T00:43:35;86682.40;;;
69597;BMP180;56802;51.184;-115.558;2022-08-19T00:46:05;86679.40;;;
69597;BMP180;56802;51.184;-115.558;2022-08-19T00:48:35;86693.40;;;
69597;BMP180;56802;51.184;-115.558;2022-08-19T00:51:06;86680.60;;;
69597;BMP180;56802;51.184;-115.558;2022-08-19T00:53:35;86684.40;;;
69597;BMP180;56802;51.184;-115.558;2022-08-19T00:56:04;86680.20;;;
69597;BMP180;56802;51.184;-115.558;2022-08-19T00:58:36;86677.20;;;
69597;BMP180;56802;51.184;-115.558;2022-08-19T01:01:05;86683.80;;;
69597;BMP180;56802;51.184;-115.558;2022-08-19T01:03:38;86676.40;;;
69597;BMP180;56802;51.184;-115.558;2022-08-19T01:06:26;86670.80;;;
69597;BMP180;56802;51.184;-115.558;2022-08-19T01:08:56;86677.80;;;
69597;BMP180;56802;51.184;-115.558;2022-08-19T01:11:27;86677.00;;;
69597;BMP180;56802;51.184;-115.558;2022-08-19T01:13:57;86682.40;;;
69597;BMP180;56802;51.184;-115.558;2022-08-19T01:16:30;86685.80;;;
69597;BMP180;56802;51.184;-115.558;2022-08-19T01:18:59;86675.80;;;
69597;BMP180;56802;51.184;-115.558;2022-08-19T01:21:49;86680.20;;;
69597;BMP180;56802;51.184;-115.558;2022-08-19T01:24:20;86687.20;;;
69597;BMP180;56802;51.184;-115.558;2022-08-19T01:26:50;86689.80;;;
69597;BMP180;56802;51.184;-115.558;2022-08-19T01:29:19;86680.80;;;
69597;BMP180;56802;51.184;-115.558;2022-08-19T01:31:52;86683.80;;;
69597;BMP180;56802;51.184;-115.558;2022-08-19T01:34:21;86676.40;;;
69597;BMP180;56802;51.184;-115.558;2022-08-19T01:36:52;86677.00;;;
69597;BMP180;56802;51.184;-115.558;2022-08-19T01:39:24;86678.80;;;
69597;BMP180;56802;51.184;-115.558;2022-08-19T01:41:54;86685.80;;;
69597;BMP180;56802;51.184;-115.558;2022-08-19T01:44:23;86689.80;;;
69597;BMP180;56802;51.184;-115.558;2022-08-19T01:46:52;86686.00;;;
69597;BMP180;56802;51.184;-115.558;2022-08-19T01:49:24;86682.20;;;
69597;BMP180;56802;51.184;-115.558;2022-08-19T01:51:55;86684.80;;;
69597;BMP180;56802;51.184;-115.558;2022-08-19T01:54:26;86685.60;;;
69597;BMP180;56802;51.184;-115.558;2022-08-19T01:57:05;86693.40;;;
69597;BMP180;56802;51.184;-115.558;2022-08-19T01:59:36;86694.80;;;
69597;BMP180;56802;51.184;-115.558;2022-08-19T02:02:06;86700.00;;;
69597;BMP180;56802;51.184;-115.558;2022-08-19T02:04:39;86697.80;;;
69597;BMP180;56802;51.184;-115.558;2022-08-19T02:07:08;86701.40;;;
69597;BMP180;56802;51.184;-115.558;2022-08-19T02:09:38;86702.20;;;
69597;BMP180;56802;51.184;-115.558;2022-08-19T02:12:07;86708.20;;;
69597;BMP180;56802;51.184;-115.558;2022-08-19T02:14:38;86712.00;;;
69597;BMP180;56802;51.184;-115.558;2022-08-19T02:17:07;86707.20;;;
69597;BMP180;56802;51.184;-115.558;2022-08-19T02:19:36;86712.60;;;
69597;BMP180;56802;51.184;-115.558;2022-08-19T02:22:07;86713.80;;;
69597;BMP180;56802;51.184;-115.558;2022-08-19T02:24:37;86713.00;;;
69597;BMP180;56802;51.184;-115.558;2022-08-19T02:27:07;86717.00;;;
69597;BMP180;56802;51.184;-115.558;2022-08-19T02:29:37;86724.80;;;
69597;BMP180;56802;51.184;-115.558;2022-08-19T02:32:07;86723.40;;;
69597;BMP180;56802;51.184;-115.558;2022-08-19T02:34:36;86724.80;;;
69597;BMP180;56802;51.184;-115.558;2022-08-19T02:37:07;86723.20;;;
69597;BMP180;56802;51.184;-115.558;2022-08-19T02:39:56;86719.20;;;
69597;BMP180;56802;51.184;-115.558;2022-08-19T02:42:26;86724.40;;;
69597;BMP180;56802;51.184;-115.558;2022-08-19T02:44:56;86725.40;;;
69597;BMP180;56802;51.184;-115.558;2022-08-19T02:47:25;86727.60;;;
69597;BMP180;56802;51.184;-115.558;2022-08-19T02:49:55;86731.60;;;
69597;BMP180;56802;51.184;-115.558;2022-08-19T02:52:24;86730.80;;;
69597;BMP180;56802;51.184;-115.558;2022-08-19T02:54:54;86733.20;;;
69597;BMP180;56802;51.184;-115.558;2022-08-19T02:57:26;86739.80;;;
69597;BMP180;56802;51.184;-115.558;2022-08-19T02:59:56;86742.20;;;
69597;BMP180;56802;51.184;-115.558;2022-08-19T03:02:25;86748.80;;;
69597;BMP180;56802;51.184;-115.558;2022-08-19T03:04:54;86750.20;;;
69597;BMP180;56802;51.184;-115.558;2022-08-19T03:07:24;86752.80;;;
69597;BMP180;56802;51.184;-115.558;2022-08-19T03:09:53;86756.60;;;
69597;BMP180;56802;51.184;-115.558;2022-08-19T03:12:23;86750.20;;;
69597;BMP180;56802;51.184;-115.558;2022-08-19T03:14:52;86747.60;;;
69597;BMP180;56802;51.184;-115.558;2022-08-19T03:17:22;86751.20;;;
69597;BMP180;56802;51.184;-115.558;2022-08-19T03:19:52;86750.60;;;
69597;BMP180;56802;51.184;-115.558;2022-08-19T03:22:21;86758.40;;;
69597;BMP180;56802;51.184;-115.558;2022-08-19T03:24:50;86760.00;;;
69597;BMP180;56802;51.184;-115.558;2022-08-19T03:27:19;86766.80;;;
69597;BMP180;56802;51.184;-115.558;2022-08-19T03:29:49;86772.40;;;
69597;BMP180;56802;51.184;-115.558;2022-08-19T03:32:18;86767.80;;;
69597;BMP180;56802;51.184;-115.558;2022-08-19T03:35:00;86771.00;;;
69597;BMP180;56802;51.184;-115.558;2022-08-19T03:37:30;86773.80;;;
69597;BMP180;56802;51.184;-115.558;2022-08-19T03:40:04;86776.20;;;
69597;BMP180;56802;51.184;-115.558;2022-08-19T03:42:34;86778.40;;;
69597;BMP180;56802;51.184;-115.558;2022-08-19T03:45:17;86779.00;;;
69597;BMP180;56802;51.184;-115.558;2022-08-19T03:47:46;86782.20;;;
69597;BMP180;56802;51.184;-115.558;2022-08-19T03:50:16;86786.40;;;
69597;BMP180;56802;51.184;-115.558;2022-08-19T03:52:51;86792.40;;;
69597;BMP180;56802;51.184;-115.558;2022-08-19T03:55:21;86793.60;;;
69597;BMP180;56802;51.184;-115.558;2022-08-19T03:57:51;86794.20;;;
69597;BMP180;56802;51.184;-115.558;2022-08-19T04:00:25;86798.00;;;
69597;BMP180;56802;51.184;-115.558;2022-08-19T04:02:55;86795.80;;;
69597;BMP180;56802;51.184;-115.558;2022-08-19T04:05:29;86792.00;;;
69597;BMP180;56802;51.184;-115.558;2022-08-19T04:07:58;86798.20;;;
69597;BMP180;56802;51.184;-115.558;2022-08-19T04:10:28;86800.20;;;
69597;BMP180;56802;51.184;-115.558;2022-08-19T04:12:57;86800.00;;;
69597;BMP180;56802;51.184;-115.558;2022-08-19T04:15:27;86794.20;;;
69597;BMP180;56802;51.184;-115.558;2022-08-19T04:18:02;86798.40;;;
69597;BMP180;56802;51.184;-115.558;2022-08-19T04:20:41;86799.80;;;
69597;BMP180;56802;51.184;-115.558;2022-08-19T04:23:13;86794.80;;;
69597;BMP180;56802;51.184;-115.558;2022-08-19T04:25:44;86799.80;;;
69597;BMP180;56802;51.184;-115.558;2022-08-19T04:28:14;86800.20;;;
69597;BMP180;56802;51.184;-115.558;2022-08-19T04:30:50;86803.80;;;
69597;BMP180;56802;51.184;-115.558;2022-08-19T04:33:24;86804.00;;;
69597;BMP180;56802;51.184;-115.558;2022-08-19T04:35:55;86806.60;;;
69597;BMP180;56802;51.184;-115.558;2022-08-19T04:38:27;86806.00;;;
69597;BMP180;56802;51.184;-115.558;2022-08-19T04:40:56;86808.20;;;
69597;BMP180;56802;51.184;-115.558;2022-08-19T04:43:45;86808.60;;;
69597;BMP180;56802;51.184;-115.558;2022-08-19T04:46:18;86808.80;;;
69597;BMP180;56802;51.184;-115.558;2022-08-19T04:49:08;86809.00;;;
69597;BMP180;56802;51.184;-115.558;2022-08-19T04:51:43;86812.60;;;
69597;BMP180;56802;51.184;-115.558;2022-08-19T04:54:13;86816.80;;;
69597;BMP180;56802;51.184;-115.558;2022-08-19T04:57:03;86818.00;;;
69597;BMP180;56802;51.184;-115.558;2022-08-19T04:59:36;86815.20;;;
69597;BMP180;56802;51.184;-115.558;2022-08-19T05:02:09;86811.20;;;
69597;BMP180;56802;51.184;-115.558;2022-08-19T05:04:38;86819.40;;;
69597;BMP180;56802;51.184;-115.558;2022-08-19T05:07:08;86815.80;;;
69597;BMP180;56802;51.184;-115.558;2022-08-19T05:09:38;86815.60;;;
69597;BMP180;56802;51.184;-115.558;2022-08-19T05:12:26;86817.00;;;
69597;BMP180;56802;51.184;-115.558;2022-08-19T05:14:58;86822.00;;;
69597;BMP180;56802;51.184;-115.558;2022-08-19T05:17:28;86820.40;;;
69597;BMP180;56802;51.184;-115.558;2022-08-19T05:20:08;86819.20;;;
69597;BMP180;56802;51.184;-115.558;2022-08-19T05:22:55;86818.40;;;
69597;BMP180;56802;51.184;-115.558;2022-08-19T05:25:25;86816.80;;;
69597;BMP180;56802;51.184;-115.558;2022-08-19T05:27:54;86821.00;;;
69597;BMP180;56802;51.184;-115.558;2022-08-19T05:30:23;86817.40;;;
69597;BMP180;56802;51.184;-115.558;2022-08-19T05:33:13;86819.60;;;
69597;BMP180;56802;51.184;-115.558;2022-08-19T05:35:43;86819.60;;;
69597;BMP180;56802;51.184;-115.558;2022-08-19T05:38:12;86816.40;;;
69597;BMP180;56802;51.184;-115.558;2022-08-19T05:40:43;86814.60;;;
69597;BMP180;56802;51.184;-115.558;2022-08-19T05:43:16;86815.20;;;
69597;BMP180;56802;51.184;-115.558;2022-08-19T05:45:46;86821.40;;;
69597;BMP180;56802;51.184;-115.558;2022-08-19T05:48:15;86820.60;;;
69597;BMP180;56802;51.184;-115.558;2022-08-19T05:50:46;86824.80;;;
69597;BMP180;56802;51.184;-115.558;2022-08-19T05:53:19;86820.40;;;
69597;BMP180;56802;51.184;-115.558;2022-08-19T05:55:48;86820.20;;;
69597;BMP180;56802;51.184;-115.558;2022-08-19T05:58:17;86822.00;;;
69597;BMP180;56802;51.184;-115.558;2022-08-19T06:00:53;86823.40;;;
69597;BMP180;56802;51.184;-115.558;2022-08-19T06:03:23;86827.20;;;
69597;BMP180;56802;51.184;-115.558;2022-08-19T06:05:53;86827.20;;;
69597;BMP180;56802;51.184;-115.558;2022-08-19T06:08:26;86831.40;;;
69597;BMP180;56802;51.184;-115.558;2022-08-19T06:11:22;86833.40;;;
69597;BMP180;56802;51.184;-115.558;2022-08-19T06:13:54;86829.60;;;
69597;BMP180;56802;51.184;-115.558;2022-08-19T06:16:27;86830.20;;;
69597;BMP180;56802;51.184;-115.558;2022-08-19T06:19:00;86830.40;;;
69597;BMP180;56802;51.184;-115.558;2022-08-19T06:21:30;86834.80;;;
69597;BMP180;56802;51.184;-115.558;2022-08-19T06:24:00;86835.00;;;
69597;BMP180;56802;51.184;-115.558;2022-08-19T06:26:30;86832.40;;;
69597;BMP180;56802;51.184;-115.558;2022-08-19T06:28:59;86834.80;;;
69597;BMP180;56802;51.184;-115.558;2022-08-19T06:31:29;86837.60;;;
69597;BMP180;56802;51.184;-115.558;2022-08-19T06:34:04;86836.20;;;
69597;BMP180;56802;51.184;-115.558;2022-08-19T06:36:41;86838.20;;;
69597;BMP180;56802;51.184;-115.558;2022-08-19T06:39:17;86835.40;;;
69597;BMP180;56802;51.184;-115.558;2022-08-19T06:41:50;86834.20;;;
69597;BMP180;56802;51.184;-115.558;2022-08-19T06:44:28;86837.20;;;
69597;BMP180;56802;51.184;-115.558;2022-08-19T06:46:58;86838.40;;;
69597;BMP180;56802;51.184;-115.558;2022-08-19T06:49:36;86834.60;;;
69597;BMP180;56802;51.184;-115.558;2022-08-19T06:52:06;86833.20;;;
69597;BMP180;56802;51.184;-115.558;2022-08-19T06:54:41;86836.80;;;
69597;BMP180;56802;51.184;-115.558;2022-08-19T06:57:24;86836.40;;;
69597;BMP180;56802;51.184;-115.558;2022-08-19T06:59:54;86838.20;;;
69597;BMP180;56802;51.184;-115.558;2022-08-19T07:02:24;86838.80;;;
69597;BMP180;56802;51.184;-115.558;2022-08-19T07:04:55;86846.00;;;
69597;BMP180;56802;51.184;-115.558;2022-08-19T07:07:27;86846.00;;;
69597;BMP180;56802;51.184;-115.558;2022-08-19T07:09:56;86841.20;;;
69597;BMP180;56802;51.184;-115.558;2022-08-19T07:12:32;86841.00;;;
69597;BMP180;56802;51.184;-115.558;2022-08-19T07:15:06;86839.20;;;
69597;BMP180;56802;51.184;-115.558;2022-08-19T07:17:38;86843.80;;;
69597;BMP180;56802;51.184;-115.558;2022-08-19T07:20:09;86842.00;;;
69597;BMP180;56802;51.184;-115.558;2022-08-19T07:22:40;86839.40;;;
69597;BMP180;56802;51.184;-115.558;2022-08-19T07:25:10;86839.20;;;
69597;BMP180;56802;51.184;-115.558;2022-08-19T07:27:41;86840.00;;;
69597;BMP180;56802;51.184;-115.558;2022-08-19T07:30:13;86840.80;;;
69597;BMP180;56802;51.184;-115.558;2022-08-19T07:32:42;86842.00;;;
69597;BMP180;56802;51.184;-115.558;2022-08-19T07:35:12;86843.80;;;
69597;BMP180;56802;51.184;-115.558;2022-08-19T07:37:41;86846.40;;;
69597;BMP180;56802;51.184;-115.558;2022-08-19T07:40:13;86840.60;;;
69597;BMP180;56802;51.184;-115.558;2022-08-19T07:42:43;86838.80;;;
69597;BMP180;56802;51.184;-115.558;2022-08-19T07:45:13;86839.20;;;
69597;BMP180;56802;51.184;-115.558;2022-08-19T07:47:42;86838.40;;;
69597;BMP180;56802;51.184;-115.558;2022-08-19T07:50:19;86839.60;;;
69597;BMP180;56802;51.184;-115.558;2022-08-19T07:52:51;86837.40;;;
69597;BMP180;56802;51.184;-115.558;2022-08-19T07:55:24;86832.00;;;
69597;BMP180;56802;51.184;-115.558;2022-08-19T07:58:12;86833.40;;;
69597;BMP180;56802;51.184;-115.558;2022-08-19T08:00:45;86828.20;;;
69597;BMP180;56802;51.184;-115.558;2022-08-19T08:03:17;86831.20;;;
69597;BMP180;56802;51.184;-115.558;2022-08-19T08:05:47;86833.20;;;
69597;BMP180;56802;51.184;-115.558;2022-08-19T08:08:35;86827.20;;;
69597;BMP180;56802;51.184;-115.558;2022-08-19T08:11:24;86829.60;;;
69597;BMP180;56802;51.184;-115.558;2022-08-19T08:13:56;86833.20;;;
69597;BMP180;56802;51.184;-115.558;2022-08-19T08:16:35;86831.60;;;
69597;BMP180;56802;51.184;-115.558;2022-08-19T08:19:14;86835.20;;;
69597;BMP180;56802;51.184;-115.558;2022-08-19T08:22:00;86833.20;;;
69597;BMP180;56802;51.184;-115.558;2022-08-19T08:24:31;86834.80;;;
69597;BMP180;56802;51.184;-115.558;2022-08-19T08:27:01;86838.00;;;
69597;BMP180;56802;51.184;-115.558;2022-08-19T08:29:38;86833.60;;;
69597;BMP180;56802;51.184;-115.558;2022-08-19T08:32:10;86836.20;;;
69597;BMP180;56802;51.184;-115.558;2022-08-19T08:34:42;86829.60;;;
69597;BMP180;56802;51.184;-115.558;2022-08-19T08:37:14;86835.20;;;
69597;BMP180;56802;51.184;-115.558;2022-08-19T08:39:43;86836.20;;;
69597;BMP180;56802;51.184;-115.558;2022-08-19T08:42:32;86839.40;;;
69597;BMP180;56802;51.184;-115.558;2022-08-19T08:45:14;86838.20;;;
69597;BMP180;56802;51.184;-115.558;2022-08-19T08:47:50;86838.00;;;
69597;BMP180;56802;51.184;-115.558;2022-08-19T08:50:43;86838.80;;;
69597;BMP180;56802;51.184;-115.558;2022-08-19T08:53:18;86837.60;;;
69597;BMP180;56802;51.184;-115.558;2022-08-19T08:55:56;86837.20;;;
69597;BMP180;56802;51.184;-115.558;2022-08-19T09:01:12;86832.20;;;
69597;BMP180;56802;51.184;-115.558;2022-08-19T09:03:43;86836.60;;;
69597;BMP180;56802;51.184;-115.558;2022-08-19T09:07:02;86833.60;;;
69597;BMP180;56802;51.184;-115.558;2022-08-19T09:10:51;86836.80;;;
69597;BMP180;56802;51.184;-115.558;2022-08-19T09:16:17;86829.20;;;
69597;BMP180;56802;51.184;-115.558;2022-08-19T09:19:00;86828.60;;;
69597;BMP180;56802;51.184;-115.558;2022-08-19T09:21:33;86821.40;;;
69597;BMP180;56802;51.184;-115.558;2022-08-19T09:24:05;86824.20;;;
69597;BMP180;56802;51.184;-115.558;2022-08-19T09:26:35;86828.60;;;
69597;BMP180;56802;51.184;-115.558;2022-08-19T09:29:19;86821.60;;;
69597;BMP180;56802;51.184;-115.558;2022-08-19T09:31:49;86820.60;;;
69597;BMP180;56802;51.184;-115.558;2022-08-19T09:34:18;86822.80;;;
69597;BMP180;56802;51.184;-115.558;2022-08-19T09:36:51;86824.80;;;
69597;BMP180;56802;51.184;-115.558;2022-08-19T09:39:22;86823.80;;;
69597;BMP180;56802;51.184;-115.558;2022-08-19T09:42:02;86820.60;;;
69597;BMP180;56802;51.184;-115.558;2022-08-19T09:44:43;86817.40;;;
69597;BMP180;56802;51.184;-115.558;2022-08-19T09:47:14;86820.00;;;
69597;BMP180;56802;51.184;-115.558;2022-08-19T09:49:46;86819.40;;;
69597;BMP180;56802;51.184;-115.558;2022-08-19T09:52:17;86828.60;;;
69597;BMP180;56802;51.184;-115.558;2022-08-19T09:54:46;86822.20;;;
69597;BMP180;56802;51.184;-115.558;2022-08-19T09:57:18;86822.40;;;
69597;BMP180;56802;51.184;-115.558;2022-08-19T09:59:48;86819.20;;;
69597;BMP180;56802;51.184;-115.558;2022-08-19T10:02:17;86819.20;;;
69597;BMP180;56802;51.184;-115.558;2022-08-19T10:04:49;86820.80;;;
69597;BMP180;56802;51.184;-115.558;2022-08-19T10:07:37;86825.20;;;
69597;BMP180;56802;51.184;-115.558;2022-08-19T10:10:07;86826.00;;;
69597;BMP180;56802;51.184;-115.558;2022-08-19T10:12:39;86824.20;;;
69597;BMP180;56802;51.184;-115.558;2022-08-19T10:15:09;86828.80;;;
69597;BMP180;56802;51.184;-115.558;2022-08-19T10:17:38;86828.40;;;
69597;BMP180;56802;51.184;-115.558;2022-08-19T10:20:15;86824.00;;;
69597;BMP180;56802;51.184;-115.558;2022-08-19T10:22:44;86826.40;;;
69597;BMP180;56802;51.184;-115.558;2022-08-19T10:25:18;86824.00;;;
69597;BMP180;56802;51.184;-115.558;2022-08-19T10:27:48;86823.60;;;
69597;BMP180;56802;51.184;-115.558;2022-08-19T10:30:18;86822.80;;;
69597;BMP180;56802;51.184;-115.558;2022-08-19T10:32:51;86831.40;;;
69597;BMP180;56802;51.184;-115.558;2022-08-19T10:35:22;86822.80;;;
69597;BMP180;56802;51.184;-115.558;2022-08-19T10:37:53;86821.80;;;
69597;BMP180;56802;51.184;-115.558;2022-08-19T10:40:28;86820.80;;;
69597;BMP180;56802;51.184;-115.558;2022-08-19T10:42:58;86818.20;;;
69597;BMP180;56802;51.184;-115.558;2022-08-19T10:45:27;86815.80;;;
69597;BMP180;56802;51.184;-115.558;2022-08-19T10:47:57;86816.20;;;
69597;BMP180;56802;51.184;-115.558;2022-08-19T10:50:27;86815.40;;;
69597;BMP180;56802;51.184;-115.558;2022-08-19T10:53:15;86816.80;;;
69597;BMP180;56802;51.184;-115.558;2022-08-19T10:55:45;86815.80;;;
69597;BMP180;56802;51.184;-115.558;2022-08-19T10:58:32;86824.60;;;
69597;BMP180;56802;51.184;-115.558;2022-08-19T11:01:01;86826.20;;;
69597;BMP180;56802;51.184;-115.558;2022-08-19T11:03:31;86823.20;;;
69597;BMP180;56802;51.184;-115.558;2022-08-19T11:06:04;86826.60;;;
69597;BMP180;56802;51.184;-115.558;2022-08-19T11:08:34;86826.60;;;
69597;BMP180;56802;51.184;-115.558;2022-08-19T11:11:07;86825.40;;;
69597;BMP180;56802;51.184;-115.558;2022-08-19T11:13:41;86826.60;;;
69597;BMP180;56802;51.184;-115.558;2022-08-19T11:16:16;86826.40;;;
69597;BMP180;56802;51.184;-115.558;2022-08-19T11:18:56;86825.40;;;
69597;BMP180;56802;51.184;-115.558;2022-08-19T11:21:33;86830.60;;;
69597;BMP180;56802;51.184;-115.558;2022-08-19T11:24:10;86824.80;;;
69597;BMP180;56802;51.184;-115.558;2022-08-19T11:26:44;86829.40;;;
69597;BMP180;56802;51.184;-115.558;2022-08-19T11:29:15;86831.00;;;
69597;BMP180;56802;51.184;-115.558;2022-08-19T11:31:48;86829.00;;;
69597;BMP180;56802;51.184;-115.558;2022-08-19T11:34:23;86827.40;;;
69597;BMP180;56802;51.184;-115.558;2022-08-19T11:36:56;86826.20;;;
69597;BMP180;56802;51.184;-115.558;2022-08-19T11:39:31;86827.80;;;
69597;BMP180;56802;51.184;-115.558;2022-08-19T11:42:02;86825.80;;;
69597;BMP180;56802;51.184;-115.558;2022-08-19T11:44:53;86822.80;;;
69597;BMP180;56802;51.184;-115.558;2022-08-19T11:47:22;86823.20;;;
69597;BMP180;56802;51.184;-115.558;2022-08-19T11:49:52;86825.40;;;
69597;BMP180;56802;51.184;-115.558;2022-08-19T11:52:22;86822.80;;;
69597;BMP180;56802;51.184;-115.558;2022-08-19T11:54:51;86820.00;;;
69597;BMP180;56802;51.184;-115.558;2022-08-19T11:57:20;86822.20;;;
69597;BMP180;56802;51.184;-115.558;2022-08-19T11:59:51;86821.40;;;
69597;BMP180;56802;51.184;-115.558;2022-08-19T12:02:21;86818.60;;;
69597;BMP180;56802;51.184;-115.558;2022-08-19T12:04:51;86815.60;;;
69597;BMP180;56802;51.184;-115.558;2022-08-19T12:07:21;86813.20;;;
69597;BMP180;56802;51.184;-115.558;2022-08-19T12:09:50;86813.40;;;
69597;BMP180;56802;51.184;-115.558;2022-08-19T12:12:21;86809.80;;;
69597;BMP180;56802;51.184;-115.558;2022-08-19T12:14:52;86811.20;;;
69597;BMP180;56802;51.184;-115.558;2022-08-19T12:17:27;86808.60;;;
69597;BMP180;56802;51.184;-115.558;2022-08-19T12:19:56;86805.60;;;
69597;BMP180;56802;51.184;-115.558;2022-08-19T12:22:26;86806.80;;;
69597;BMP180;56802;51.184;-115.558;2022-08-19T12:24:56;86813.00;;;
69597;BMP180;56802;51.184;-115.558;2022-08-19T12:27:27;86811.20;;;
69597;BMP180;56802;51.184;-115.558;2022-08-19T12:30:16;86811.60;;;
69597;BMP180;56802;51.184;-115.558;2022-08-19T12:32:45;86812.00;;;
69597;BMP180;56802;51.184;-115.558;2022-08-19T12:35:14;86810.00;;;
69597;BMP180;56802;51.184;-115.558;2022-08-19T12:37:44;86815.20;;;
69597;BMP180;56802;51.184;-115.558;2022-08-19T12:40:24;86809.60;;;
69597;BMP180;56802;51.184;-115.558;2022-08-19T12:42:55;86810.80;;;
69597;BMP180;56802;51.184;-115.558;2022-08-19T12:45:24;86808.20;;;
69597;BMP180;56802;51.184;-115.558;2022-08-19T12:47:54;86808.80;;;
69597;BMP180;56802;51.184;-115.558;2022-08-19T12:50:24;86812.00;;;
69597;BMP180;56802;51.184;-115.558;2022-08-19T12:52:54;86813.00;;;
69597;BMP180;56802;51.184;-115.558;2022-08-19T12:55:25;86810.20;;;
69597;BMP180;56802;51.184;-115.558;2022-08-19T12:57:56;86815.00;;;
69597;BMP180;56802;51.184;-115.558;2022-08-19T13:00:26;86810.20;;;
69597;BMP180;56802;51.184;-115.558;2022-08-19T13:02:56;86812.60;;;
69597;BMP180;56802;51.184;-115.558;2022-08-19T13:05:29;86809.20;;;
69597;BMP180;56802;51.184;-115.558;2022-08-19T13:08:00;86809.20;;;
69597;BMP180;56802;51.184;-115.558;2022-08-19T13:10:35;86805.40;;;
69597;BMP180;56802;51.184;-115.558;2022-08-19T13:13:07;86809.80;;;
69597;BMP180;56802;51.184;-115.558;2022-08-19T13:15:41;86812.80;;;
69597;BMP180;56802;51.184;-115.558;2022-08-19T13:18:11;86810.60;;;
69597;BMP180;56802;51.184;-115.558;2022-08-19T13:20:44;86806.60;;;
69597;BMP180;56802;51.184;-115.558;2022-08-19T13:23:19;86810.60;;;
69597;BMP180;56802;51.184;-115.558;2022-08-19T13:26:00;86813.20;;;
69597;BMP180;56802;51.184;-115.558;2022-08-19T13:28:31;86813.40;;;
69597;BMP180;56802;51.184;-115.558;2022-08-19T13:31:23;86812.00;;;
69597;BMP180;56802;51.184;-115.558;2022-08-19T13:34:12;86805.20;;;
69597;BMP180;56802;51.184;-115.558;2022-08-19T13:36:42;86811.80;;;
69597;BMP180;56802;51.184;-115.558;2022-08-19T13:39:12;86811.00;;;
69597;BMP180;56802;51.184;-115.558;2022-08-19T13:41:46;86810.00;;;
69597;BMP180;56802;51.184;-115.558;2022-08-19T13:44:18;86808.60;;;
69597;BMP180;56802;51.184;-115.558;2022-08-19T13:46:49;86807.60;;;
69597;BMP180;56802;51.184;-115.558;2022-08-19T13:49:20;86806.60;;;
69597;BMP180;56802;51.184;-115.558;2022-08-19T13:51:51;86809.20;;;
69597;BMP180;56802;51.184;-115.558;2022-08-19T13:54:20;86807.40;;;
69597;BMP180;56802;51.184;-115.558;2022-08-19T13:56:50;86809.80;;;
69597;BMP180;56802;51.184;-115.558;2022-08-19T13:59:19;86805.60;;;
69597;BMP180;56802;51.184;-115.558;2022-08-19T14:01:49;86807.00;;;
69597;BMP180;56802;51.184;-115.558;2022-08-19T14:04:18;86805.00;;;
69597;BMP180;56802;51.184;-115.558;2022-08-19T14:06:48;86800.60;;;
69597;BMP180;56802;51.184;-115.558;2022-08-19T14:09:17;86799.20;;;
69597;BMP180;56802;51.184;-115.558;2022-08-19T14:11:47;86800.20;;;
69597;BMP180;56802;51.184;-115.558;2022-08-19T14:14:16;86796.20;;;
69597;BMP180;56802;51.184;-115.558;2022-08-19T14:16:45;86795.00;;;
69597;BMP180;56802;51.184;-115.558;2022-08-19T14:19:16;86796.20;;;
69597;BMP180;56802;51.184;-115.558;2022-08-19T14:21:45;86797.20;;;
69597;BMP180;56802;51.184;-115.558;2022-08-19T14:24:14;86795.40;;;
69597;BMP180;56802;51.184;-115.558;2022-08-19T14:26:44;86794.00;;;
69597;BMP180;56802;51.184;-115.558;2022-08-19T14:29:13;86788.00;;;
69597;BMP180;56802;51.184;-115.558;2022-08-19T14:31:42;86791.40;;;
69597;BMP180;56802;51.184;-115.558;2022-08-19T14:34:12;86791.40;;;
69597;BMP180;56802;51.184;-115.558;2022-08-19T14:36:42;86787.60;;;
69597;BMP180;56802;51.184;-115.558;2022-08-19T14:39:12;86787.20;;;
69597;BMP180;56802;51.184;-115.558;2022-08-19T14:41:42;86782.20;;;
69597;BMP180;56802;51.184;-115.558;2022-08-19T14:44:12;86784.20;;;
69597;BMP180;56802;51.184;-115.558;2022-08-19T14:46:42;86787.40;;;
69597;BMP180;56802;51.184;-115.558;2022-08-19T14:49:16;86782.40;;;
69597;BMP180;56802;51.184;-115.558;2022-08-19T14:51:46;86794.00;;;
69597;BMP180;56802;51.184;-115.558;2022-08-19T14:54:16;86789.20;;;
69597;BMP180;56802;51.184;-115.558;2022-08-19T14:56:45;86790.00;;;
69597;BMP180;56802;51.184;-115.558;2022-08-19T14:59:15;86789.20;;;
69597;BMP180;56802;51.184;-115.558;2022-08-19T15:01:47;86785.60;;;
69597;BMP180;56802;51.184;-115.558;2022-08-19T15:04:16;86782.40;;;
69597;BMP180;56802;51.184;-115.558;2022-08-19T15:06:45;86780.80;;;
69597;BMP180;56802;51.184;-115.558;2022-08-19T15:09:15;86781.40;;;
69597;BMP180;56802;51.184;-115.558;2022-08-19T15:11:44;86776.80;;;